Time;durP1;ratioP1;P1;durP2;ratioP2;P2;SDS_P1;SDS_P2;PMS_P1;PMS_P2;Temp;Humidity;BMP_temperature;BMP_pressure;BME280_temperature;BME280_humidity;BME280_pressure;Samples;Min_cycle;Max_cycle;Signal;HPM_P1;HPM_P2
2023/07/06 00:01:48;;;;;;;5.13;2.50;;;15.90;89.20;;;16.65;63.77;100564.19;4971888;28;20047;-86
2023/07/06 00:04:17;;;;;;;6.28;3.00;;;15.90;89.00;;;16.64;63.89;100567.13;4953121;28;20036;-87
2023/07/06 00:06:45;;;;;;;6.70;3.25;;;15.90;89.00;;;16.63;63.53;100568.19;4959519;28;20118;-87
2023/07/06 00:09:14;;;;;;;7.43;3.25;;;15.90;88.90;;;16.58;63.79;100565.41;4949590;28;20050;-87
2023/07/06 00:11:41;;;;;;;10.00;3.00;;;15.80;89.00;;;16.58;63.63;100568.94;4950703;28;20095;-86
2023/07/06 00:14:11;;;;;;;5.95;2.75;;;15.80;88.90;;;16.59;63.60;100575.13;4949958;28;20093;-86
2023/07/06 00:16:42;;;;;;;5.82;3.08;;;15.80;88.90;;;16.56;63.68;100568.38;4956706;28;20134;-87
2023/07/06 00:19:09;;;;;;;7.20;3.13;;;15.80;88.90;;;16.58;63.63;100566.22;4942435;28;20054;-86
2023/07/06 00:21:37;;;;;;;7.32;2.75;;;15.80;88.70;;;16.57;63.40;100567.31;4961528;28;20106;-87
2023/07/06 00:24:07;;;;;;;6.60;2.83;;;15.80;88.70;;;16.58;63.32;100568.13;4950987;28;20440;-86
2023/07/06 00:26:34;;;;;;;7.22;2.80;;;15.80;88.60;;;16.59;63.33;100567.03;4972224;28;20047;-86
2023/07/06 00:29:02;;;;;;;8.18;2.80;;;15.80;88.50;;;16.58;63.22;100570.81;4959287;28;20054;-86
2023/07/06 00:31:50;;;;;;;8.25;2.97;;;15.80;88.40;;;16.54;63.34;100569.66;4961412;28;20047;-86
2023/07/06 00:34:19;;;;;;;6.22;3.15;;;15.80;88.70;;;16.47;63.69;100572.53;4962903;28;20175;-86
2023/07/06 00:36:48;;;;;;;7.80;2.80;;;15.70;89.10;;;16.49;63.66;100565.03;4955477;28;20062;-87
2023/07/06 00:39:16;;;;;;;5.60;2.72;;;15.70;89.10;;;16.48;63.66;100568.78;4956771;28;20071;-86
2023/07/06 00:41:43;;;;;;;5.85;3.00;;;15.70;89.10;;;16.52;63.69;100567.22;4954584;28;20038;-86
2023/07/06 00:44:50;;;;;;;6.28;2.72;;;15.80;89.10;;;16.50;63.86;100566.69;4961114;28;20053;-86
2023/07/06 00:47:20;;;;;;;7.70;2.92;;;15.70;89.20;;;16.48;63.92;100566.09;4951809;28;20348;-86
2023/07/06 00:49:48;;;;;;;4.72;2.60;;;15.70;89.00;;;16.48;63.74;100561.53;4970667;28;20039;-87
2023/07/06 00:52:16;;;;;;;5.75;2.80;;;15.80;89.00;;;16.50;63.76;100568.56;4961231;28;20530;-87
2023/07/06 00:54:44;;;;;;;8.23;3.08;;;15.80;89.10;;;16.44;64.13;100571.16;4959740;28;20043;-87
2023/07/06 00:57:17;;;;;;;7.00;3.08;;;15.70;89.10;;;16.43;64.14;100569.53;4957303;28;20066;-87
2023/07/06 00:59:45;;;;;;;6.53;2.70;;;15.70;89.30;;;16.43;63.94;100568.72;4956596;28;20122;-86
2023/07/06 01:02:18;;;;;;;6.57;2.92;;;15.70;89.30;;;16.42;64.30;100570.59;4952404;28;20050;-87
2023/07/06 01:04:46;;;;;;;5.78;2.90;;;15.70;89.20;;;16.43;64.10;100568.72;4946833;28;20070;-86
2023/07/06 01:07:21;;;;;;;7.97;2.63;;;15.70;89.10;;;16.44;64.17;100563.06;4956460;28;20039;-86
2023/07/06 01:09:49;;;;;;;8.48;3.33;;;15.80;89.20;;;16.45;63.90;100570.13;4952744;28;20217;-87
2023/07/06 01:12:17;;;;;;;6.60;2.95;;;15.70;89.10;;;16.44;63.77;100565.75;4952566;28;20054;-87
2023/07/06 01:14:45;;;;;;;5.75;2.90;;;15.70;89.10;;;16.44;63.92;100565.75;4951915;28;20503;-86
2023/07/06 01:17:22;;;;;;;5.80;2.92;;;15.70;89.00;;;16.44;63.89;100568.47;4953436;28;20047;-86
2023/07/06 01:20:15;;;;;;;7.03;3.28;;;15.70;89.10;;;16.43;64.05;100574.09;4955110;28;20051;-87
2023/07/06 01:23:37;;;;;;;5.43;2.75;;;15.70;89.20;;;16.43;63.74;100568.72;4942865;29;20500;-86
2023/07/06 01:26:22;;;;;;;;;;;15.70;89.10;;;16.38;63.89;100568.63;4946639;28;20055;-86
2023/07/06 01:29:21;;;;;;;7.05;3.45;;;15.70;89.20;;;16.36;63.95;100563.50;4947324;28;19969;-87
2023/07/06 01:31:55;;;;;;;5.50;3.33;;;15.60;89.10;;;16.35;64.17;100569.97;4956159;28;20047;-87
2023/07/06 01:34:32;;;;;;;7.97;3.20;;;15.60;89.30;;;16.36;64.08;100566.22;4957974;28;20055;-86
2023/07/06 01:37:07;;;;;;;7.55;3.88;;;15.60;89.40;;;16.32;64.14;100566.94;4956491;28;20047;-87
2023/07/06 01:39:34;;;;;;;6.18;3.42;;;15.60;89.30;;;16.32;64.05;100562.38;4948305;29;20134;-86
2023/07/06 01:42:29;;;;;;;6.50;3.28;;;15.60;89.30;;;16.31;64.21;100560.75;4954768;28;20071;-86
2023/07/06 01:45:02;;;;;;;6.38;3.20;;;15.60;89.40;;;16.33;63.95;100568.56;4958540;28;20050;-86
2023/07/06 01:47:35;;;;;;;6.50;3.10;;;15.60;89.30;;;16.31;63.43;100568.81;4951117;28;20456;-86
2023/07/06 01:50:06;;;;;;;7.80;2.75;;;15.60;89.20;;;16.33;64.00;100568.56;4952087;28;20086;-86
2023/07/06 01:52:44;;;;;;;;;;;15.60;89.10;;;16.33;63.82;100569.38;4958369;28;20456;-86
2023/07/06 01:55:20;;;;;;;10.32;3.60;;;15.60;89.20;;;16.29;63.97;100564.72;4950587;28;20020;-87
2023/07/06 01:57:55;;;;;;;7.50;3.47;;;15.60;89.20;;;16.30;63.70;100566.34;4950349;28;20085;-86
2023/07/06 02:00:24;;;;;;;6.22;2.97;;;15.60;89.10;;;16.29;64.10;100570.94;4951755;28;20102;-86
2023/07/06 02:02:54;;;;;;;7.35;3.08;;;15.50;89.30;;;16.28;63.99;100571.19;4948800;28;20055;-87
2023/07/06 02:05:24;;;;;;;7.05;3.15;;;15.50;89.30;;;16.28;63.56;100565.81;4956530;28;20142;-86
2023/07/06 02:07:51;;;;;;;8.30;3.05;;;15.50;89.10;;;16.29;63.75;100567.44;4954526;28;20484;-87
2023/07/06 02:10:22;;;;;;;6.65;3.58;;;15.50;88.90;;;16.28;63.70;100572.00;4950076;28;20075;-86
2023/07/06 02:12:49;;;;;;;8.57;3.60;;;15.50;89.10;;;16.27;63.54;100573.06;4954202;28;20098;-86
2023/07/06 02:15:18;;;;;;;6.88;3.28;;;15.50;89.10;;;16.24;63.78;100565.47;4950243;28;20040;-86
2023/07/06 02:17:46;;;;;;;8.68;3.30;;;15.50;89.10;;;16.24;63.68;100568.16;4949920;28;20503;-86
2023/07/06 02:20:20;;;;;;;9.27;3.28;;;15.50;89.10;;;16.25;63.58;100571.66;4951988;28;20142;-86
2023/07/06 02:22:47;;;;;;;7.63;3.83;;;15.50;88.90;;;16.22;63.55;100568.41;4949425;28;20415;-86
2023/07/06 02:25:16;;;;;;;7.57;3.22;;;15.40;88.90;;;16.22;63.43;100568.41;4951259;28;20829;-87
2023/07/06 02:27:44;;;;;;;6.97;3.42;;;15.40;88.90;;;16.23;63.45;100571.91;4958204;28;20115;-86
2023/07/06 02:30:12;;;;;;;8.63;3.15;;;15.40;88.80;;;16.23;63.37;100571.91;4961603;28;20054;-87
2023/07/06 02:32:40;;;;;;;7.28;3.60;;;15.40;88.70;;;16.21;63.44;100568.69;4955031;28;20061;-86
2023/07/06 02:35:09;;;;;;;10.57;3.42;;;15.40;88.80;;;16.19;63.48;100568.09;4951698;28;20125;-86
2023/07/06 02:37:39;;;;;;;8.10;3.80;;;15.40;88.90;;;16.18;63.53;100567.28;4949400;28;20138;-86
2023/07/06 02:40:10;;;;;;;8.88;3.45;;;15.40;88.90;;;16.16;63.61;100566.72;4952798;28;20047;-87
2023/07/06 02:42:40;;;;;;;7.25;3.15;;;15.40;89.10;;;16.11;63.82;100568.53;4962241;28;20051;-86
2023/07/06 02:45:09;;;;;;;8.77;3.95;;;15.30;89.30;;;15.99;64.46;100573.16;4953678;28;20046;-87
2023/07/06 02:47:37;;;;;;;10.98;3.92;;;15.30;89.50;;;15.93;64.64;100570.38;4955976;28;20050;-86
2023/07/06 02:50:07;;;;;;;9.38;3.78;;;15.40;90.00;;;15.96;64.72;100569.91;4951532;28;20050;-86
2023/07/06 02:52:34;;;;;;;7.70;3.60;;;15.20;90.00;;;15.96;64.46;100575.28;4977339;23;20069;-85
2023/07/06 02:55:03;;;;;;;9.77;3.33;;;15.20;90.00;;;15.96;64.64;100572.59;4989792;28;20050;-85
2023/07/06 02:57:31;;;;;;;7.35;3.97;;;15.20;90.10;;;15.95;64.56;100572.81;4994315;28;20131;-85
2023/07/06 02:59:58;;;;;;;7.85;3.10;;;15.20;90.00;;;15.95;64.81;100573.63;4989648;28;20041;-86
2023/07/06 03:02:26;;;;;;;8.18;3.35;;;15.20;90.20;;;15.94;64.34;100566.63;4990571;28;20124;-85
2023/07/06 03:04:53;;;;;;;8.15;3.88;;;15.20;90.10;;;15.93;64.56;100573.06;4998913;28;20077;-85
2023/07/06 03:07:23;;;;;;;9.32;3.78;;;15.20;90.20;;;15.92;64.49;100579.53;4978743;28;20085;-85
2023/07/06 03:09:50;;;;;;;7.53;3.40;;;15.20;90.00;;;15.89;64.59;100582.69;4975344;28;20042;-85
2023/07/06 03:12:19;;;;;;;8.00;3.33;;;15.10;90.10;;;15.90;64.59;100584.31;4986632;28;20101;-86
2023/07/06 03:14:47;;;;;;;7.63;3.40;;;15.20;90.10;;;15.91;64.54;100579.78;4978540;28;20038;-86
2023/07/06 03:17:14;;;;;;;8.18;3.20;;;15.10;90.20;;;15.90;64.31;100576.22;4964669;28;20502;-85
2023/07/06 03:19:41;;;;;;;8.13;3.30;;;15.20;89.90;;;15.91;64.31;100587.84;4986976;28;20507;-86
2023/07/06 03:22:10;;;;;;;12.13;3.58;;;15.20;89.80;;;15.91;64.21;100582.47;4976401;28;20049;-85
2023/07/06 03:24:38;;;;;;;6.53;3.40;;;15.20;89.70;;;15.91;64.06;100588.66;4975466;28;20656;-85
2023/07/06 03:27:06;;;;;;;6.80;3.22;;;15.20;89.60;;;15.88;64.13;100588.31;4990514;28;20060;-86
2023/07/06 03:29:35;;;;;;;10.30;3.70;;;15.10;89.70;;;15.89;64.01;100598.00;4972148;28;20054;-85
2023/07/06 03:32:04;;;;;;;8.40;3.75;;;15.10;89.60;;;15.87;63.98;100598.25;4994759;28;20046;-85
2023/07/06 03:34:31;;;;;;;7.70;3.28;;;15.10;89.70;;;15.86;64.21;100593.94;4966035;28;20048;-85
2023/07/06 03:36:58;;;;;;;7.20;3.20;;;15.10;89.90;;;15.84;64.14;100598.72;4970649;28;20046;-86
2023/07/06 03:39:26;;;;;;;8.23;3.13;;;15.10;89.70;;;15.82;64.33;100600.88;4983648;28;20046;-85
2023/07/06 03:41:53;;;;;;;9.18;2.85;;;15.10;90.00;;;15.80;64.27;100594.91;4986394;28;20054;-85
2023/07/06 03:44:21;;;;;;;7.43;3.10;;;15.10;90.00;;;15.82;64.18;100608.94;4977142;28;20093;-85
2023/07/06 03:46:50;;;;;;;8.70;4.03;;;15.10;89.90;;;15.82;64.29;100602.75;4980880;28;20057;-85
2023/07/06 03:49:18;;;;;;;10.85;3.63;;;15.10;89.90;;;15.81;64.04;100612.69;4965617;28;20039;-85
2023/07/06 03:51:47;;;;;;;9.60;3.70;;;15.10;89.70;;;15.82;63.97;100600.06;4977080;28;20564;-86
2023/07/06 03:54:14;;;;;;;7.38;3.13;;;15.10;89.50;;;15.82;63.97;100600.06;4970665;28;20104;-85
2023/07/06 03:56:43;;;;;;;11.35;3.20;;;15.10;89.70;;;15.80;63.96;100600.28;4988197;28;20057;-85
2023/07/06 03:59:10;;;;;;;6.32;3.05;;;15.10;89.50;;;15.80;64.07;100597.59;4980259;28;20042;-85
2023/07/06 04:01:37;;;;;;;9.35;2.95;;;15.10;89.70;;;15.80;63.88;100602.97;4991728;28;20062;-85
2023/07/06 04:04:08;;;;;;;7.68;3.00;;;15.10;89.40;;;15.81;64.02;100603.78;4977477;28;20034;-85
2023/07/06 04:06:41;;;;;;;5.88;2.92;;;15.10;89.60;;;15.77;63.89;100603.47;4983527;28;20051;-85
2023/07/06 04:09:10;;;;;;;9.02;3.33;;;15.10;89.40;;;15.76;63.83;100607.19;4971934;28;20168;-83
2023/07/06 04:11:37;;;;;;;9.65;3.05;;;15.10;89.30;;;15.66;64.25;100604.31;4971742;28;20050;-84
2023/07/06 04:14:05;;;;;;;12.07;3.38;;;15.00;89.40;;;15.66;64.23;100607.00;4958222;28;20047;-80
2023/07/06 04:16:32;;;;;;;9.63;3.28;;;15.00;89.40;;;15.69;64.53;100611.91;4961927;28;20061;-78
2023/07/06 04:18:59;;;;;;;8.93;2.83;;;15.10;89.70;;;15.73;64.44;100607.69;4971396;28;20077;-79
2023/07/06 04:21:28;;;;;;;10.35;3.28;;;15.10;89.70;;;15.73;64.17;100612.25;4978376;28;20058;-81
2023/07/06 04:23:55;;;;;;;8.57;3.15;;;15.10;89.40;;;15.73;64.32;100614.94;4984014;28;20147;-80
2023/07/06 04:26:24;;;;;;;6.55;2.67;;;15.10;89.50;;;15.75;64.25;100607.44;4980228;28;20128;-79
2023/07/06 04:28:51;;;;;;;8.00;3.13;;;15.10;89.30;;;15.76;64.03;100617.94;4969511;28;20549;-80
2023/07/06 04:31:19;;;;;;;7.18;3.10;;;15.20;89.20;;;15.81;64.07;100609.16;4975954;28;20045;-79
2023/07/06 04:33:46;;;;;;;10.20;3.35;;;15.20;89.10;;;15.78;64.06;100605.09;4982441;28;20045;-79
2023/07/06 04:36:14;;;;;;;9.30;3.17;;;15.20;89.10;;;15.86;64.33;100614.63;4975993;28;20119;-80
2023/07/06 04:38:42;;;;;;;11.50;3.53;;;15.30;89.20;;;15.90;64.07;100608.50;4959713;28;20122;-79
2023/07/06 04:41:12;;;;;;;11.70;3.22;;;15.40;88.90;;;15.93;64.02;100615.28;4969260;28;20046;-80
2023/07/06 04:43:39;;;;;;;10.38;3.58;;;15.40;88.60;;;16.02;64.09;100613.03;4970339;28;20138;-79
2023/07/06 04:46:06;;;;;;;9.27;3.17;;;15.50;88.70;;;16.22;63.55;100606.09;4967070;28;20813;-80
2023/07/06 04:48:34;;;;;;;9.50;3.10;;;15.70;87.90;;;16.36;63.11;100611.97;4974627;28;20050;-80
2023/07/06 04:51:03;;;;;;;10.18;2.90;;;15.90;87.20;;;16.53;62.81;100614.63;4979129;28;20085;-80
2023/07/06 04:53:32;;;;;;;11.25;3.10;;;16.00;86.90;;;16.65;62.10;100615.34;4971463;28;20038;-80
2023/07/06 04:56:01;;;;;;;10.20;3.25;;;16.20;86.10;;;16.82;62.06;100617.22;4969726;28;20129;-80
2023/07/06 04:58:31;;;;;;;11.15;3.17;;;16.30;86.10;;;16.94;61.85;100610.66;4973177;28;20042;-80
2023/07/06 05:01:02;;;;;;;12.53;2.93;;;16.50;85.70;;;17.06;61.65;100618.63;4966836;28;20492;-80
2023/07/06 05:03:30;;;;;;;13.77;3.22;;;16.70;85.20;;;17.18;61.10;100623.91;4964612;28;20038;-80
2023/07/06 05:06:02;;;;;;;9.23;2.85;;;16.80;84.30;;;17.29;60.94;100620.25;4990387;28;20042;-79
2023/07/06 05:08:29;;;;;;;10.48;3.03;;;17.00;83.90;;;17.42;60.72;100625.28;4982194;28;20046;-79
2023/07/06 05:10:57;;;;;;;10.25;3.05;;;17.10;83.70;;;17.58;61.21;100625.44;4978824;28;20041;-79
2023/07/06 05:13:26;;;;;;;8.63;3.20;;;17.30;84.10;;;17.66;60.09;100619.56;4981419;28;20554;-87
2023/07/06 05:15:53;;;;;;;14.55;2.90;;;17.50;82.80;;;17.77;59.92;100620.53;4974516;28;20043;-86
2023/07/06 05:18:21;;;;;;;13.05;3.13;;;17.60;82.50;;;17.88;59.89;100628.44;4976548;28;20064;-83
2023/07/06 05:20:50;;;;;;;8.88;3.08;;;17.70;82.40;;;17.76;59.39;100625.09;4962870;28;20739;-85
2023/07/06 05:23:18;;;;;;;8.80;3.00;;;17.60;81.60;;;17.70;60.06;100620.69;4966728;28;20104;-86
2023/07/06 05:25:46;;;;;;;7.03;2.60;;;17.40;82.30;;;17.62;59.91;100623.84;4970594;28;20047;-87
2023/07/06 05:28:19;;;;;;;11.40;3.53;;;17.30;82.50;;;17.60;59.96;100628.69;4979920;28;20388;-83
2023/07/06 05:30:48;;;;;;;12.77;3.10;;;17.30;82.40;;;17.56;59.99;100625.66;4972367;28;20042;-84
2023/07/06 05:33:16;;;;;;;7.57;2.40;;;17.20;82.80;;;17.56;59.93;100627.53;4976833;28;20122;-85
2023/07/06 05:35:43;;;;;;;8.23;2.50;;;17.30;82.20;;;17.70;59.96;100632.28;4976567;28;20057;-85
2023/07/06 05:38:13;;;;;;;11.35;2.90;;;17.50;82.10;;;17.64;60.43;100627.91;4968921;28;20575;-92
2023/07/06 05:40:42;;;;;;;6.05;2.35;;;17.40;82.50;;;17.50;60.10;100632.88;4969635;28;20147;-84
2023/07/06 05:43:11;;;;;;;8.98;2.72;;;17.30;82.40;;;17.49;60.43;100628.56;4976753;28;20082;-86
2023/07/06 05:45:39;;;;;;;7.68;2.88;;;17.30;82.80;;;17.51;60.04;100628.31;4976220;28;20047;-88
2023/07/06 05:48:07;;;;;;;8.93;2.88;;;17.20;82.70;;;17.50;60.65;100626.69;4970652;28;20058;-88
2023/07/06 05:50:35;;;;;;;8.85;2.80;;;17.30;82.80;;;17.63;60.02;100636.28;4965289;28;20566;-82
2023/07/06 05:53:02;;;;;;;9.25;3.15;;;17.50;82.00;;;17.51;59.82;100636.41;4974713;28;20130;-83
2023/07/06 05:55:30;;;;;;;13.95;3.20;;;17.40;81.80;;;17.41;59.76;100628.19;4980537;28;20047;-81
2023/07/06 05:57:57;;;;;;;8.50;2.85;;;17.30;81.80;;;17.57;60.64;100640.81;4969742;28;20043;-83
2023/07/06 06:00:25;;;;;;;8.18;3.10;;;17.40;82.90;;;17.66;60.42;100641.13;4966873;28;20070;-88
2023/07/06 06:02:52;;;;;;;9.35;2.92;;;17.50;82.30;;;17.73;60.28;100647.19;4966941;28;20555;-87
2023/07/06 06:05:21;;;;;;;10.70;3.28;;;17.60;82.00;;;17.86;59.71;100651.34;4981260;28;20046;-88
2023/07/06 06:07:51;;;;;;;8.43;2.58;;;17.80;81.40;;;17.94;60.20;100649.00;4973458;28;20140;-86
2023/07/06 06:10:22;;;;;;;5.50;2.63;;;17.90;81.80;;;18.11;60.44;100651.63;4969034;28;20503;-85
2023/07/06 06:12:49;;;;;;;10.05;2.75;;;18.10;82.00;;;18.25;59.62;100652.81;4968007;28;20065;-87
2023/07/06 06:15:17;;;;;;;9.38;3.05;;;18.30;80.80;;;18.33;58.76;100646.09;4977800;28;20043;-81
2023/07/06 06:17:44;;;;;;;10.82;3.20;;;18.50;79.90;;;18.42;59.38;100658.06;4977423;28;20061;-81
2023/07/06 06:20:11;;;;;;;11.95;3.38;;;18.60;80.20;;;18.55;59.21;100656.81;4965289;28;20066;-85
2023/07/06 06:22:41;;;;;;;10.35;2.80;;;18.70;80.00;;;18.67;58.79;100670.13;4965550;28;20074;-87
2023/07/06 06:25:10;;;;;;;10.07;2.63;;;18.90;79.20;;;18.70;58.05;100675.06;4988622;28;20110;-86
2023/07/06 06:27:37;;;;;;;8.45;2.95;;;18.90;78.40;;;18.78;58.38;100674.53;4970758;28;20420;-86
2023/07/06 06:30:06;;;;;;;18.65;3.40;;;19.00;78.10;;;18.88;59.13;100681.91;4991132;28;20421;-87
2023/07/06 06:32:35;;;;;;;8.77;2.65;;;19.10;79.40;;;18.98;58.24;100687.38;4965590;28;20775;-86
2023/07/06 06:35:03;;;;;;;10.57;2.90;;;19.20;78.10;;;19.08;58.11;100686.63;4976006;28;20127;-87
2023/07/06 06:37:30;;;;;;;11.43;3.50;;;19.40;78.00;;;19.14;57.75;100682.88;4973474;28;20086;-87
2023/07/06 06:39:59;;;;;;;14.00;3.50;;;19.50;77.50;;;19.22;57.97;100690.47;4967193;28;20523;-86
2023/07/06 06:42:28;;;;;;;7.97;3.08;;;19.50;77.80;;;19.28;58.42;100690.25;4970213;28;20042;-86
2023/07/06 06:44:57;;;;;;;10.25;3.10;;;19.60;78.20;;;19.37;58.12;100692.44;4978865;28;20058;-85
2023/07/06 06:47:25;;;;;;;9.02;3.03;;;19.70;77.20;;;19.45;57.79;100689.22;4973047;28;20113;-85
2023/07/06 06:49:52;;;;;;;11.77;3.17;;;19.80;76.90;;;19.50;58.23;100686.53;4995522;28;20134;-83
2023/07/06 06:52:20;;;;;;;19.10;5.55;;;19.90;77.40;;;19.57;58.01;100695.25;4974492;28;20462;-87
2023/07/06 06:54:51;;;;;;;13.73;3.40;;;19.90;77.40;;;19.46;57.39;100694.38;4964030;28;20049;-85
2023/07/06 07:00:02;;;;;;;17.90;3.45;;;19.70;76.70;;;19.42;57.09;100696.00;5204235;23;20058;-88
2023/07/06 07:02:34;;;;;;;13.20;4.35;;;19.70;76.80;;;19.38;56.63;100694.91;4951829;28;20039;-88
2023/07/06 07:05:01;;;;;;;16.75;3.38;;;19.60;76.20;;;19.37;57.44;100704.06;4952387;28;20130;-88
2023/07/06 07:07:29;;;;;;;12.52;3.15;;;19.60;76.80;;;19.49;57.84;100707.38;4953522;28;20090;-88
2023/07/06 07:09:56;;;;;;;13.15;3.83;;;19.80;77.90;;;19.39;57.05;100707.34;4955077;28;20047;-87
2023/07/06 07:17:42;;;;;;;16.70;3.78;;;19.90;77.30;;;19.55;57.35;100703.59;4952137;29;20404;-85
2023/07/06 07:20:13;;;;;;;12.75;3.33;;;19.80;76.80;;;19.66;57.39;100706.38;4957891;28;20057;-84
2023/07/06 07:22:41;;;;;;;9.70;3.15;;;20.00;76.80;;;19.75;57.04;100704.78;4962369;28;20061;-88
2023/07/06 07:25:18;;;;;;;10.80;3.50;;;20.00;76.50;;;19.86;56.95;100706.44;4954912;28;20039;-86
2023/07/06 07:27:46;;;;;;;10.60;2.70;;;20.20;76.00;;;19.91;56.77;100703.75;4951288;28;20086;-86
2023/07/06 07:30:13;;;;;;;12.98;3.40;;;20.30;76.00;;;19.96;56.61;100706.47;4953515;28;20515;-86
2023/07/06 07:32:42;;;;;;;14.77;3.22;;;20.30;75.80;;;20.03;57.84;100711.63;4961199;28;20051;-86
2023/07/06 07:35:10;;;;;;;11.32;3.00;;;20.40;76.40;;;20.12;55.91;100717.34;4959600;28;20141;-86
2023/07/06 07:37:38;;;;;;;10.85;3.00;;;20.50;74.70;;;20.19;55.76;100715.16;4960952;28;20055;-86
2023/07/06 07:40:07;;;;;;;12.95;3.08;;;20.50;74.50;;;20.24;55.48;100718.69;4965402;28;20477;-86
2023/07/06 07:42:34;;;;;;;12.45;3.25;;;20.60;74.30;;;20.25;56.09;100708.66;4959056;28;20074;-86
2023/07/06 07:45:02;;;;;;;12.35;3.50;;;20.60;74.70;;;20.28;56.34;100718.97;4966686;28;20146;-86
2023/07/06 07:47:29;;;;;;;18.30;3.55;;;20.60;75.20;;;20.38;57.05;100715.44;4946352;28;20496;-85
2023/07/06 07:49:58;;;;;;;12.43;3.28;;;20.70;75.60;;;20.35;56.75;100714.13;4963344;28;20058;-86
2023/07/06 07:52:27;;;;;;;9.63;3.20;;;20.70;75.20;;;20.42;55.95;100720.06;4968285;28;20043;-86
2023/07/06 07:54:55;;;;;;;15.20;3.20;;;20.70;74.10;;;20.33;55.62;100711.66;4952195;28;20521;-86
2023/07/06 07:57:23;;;;;;;12.02;3.40;;;20.60;74.10;;;20.38;56.31;100726.28;4963342;28;20066;-86
2023/07/06 07:59:50;;;;;;;11.88;3.05;;;20.70;74.90;;;20.48;55.50;100716.28;4965552;28;20735;-86
2023/07/06 08:02:18;;;;;;;9.52;2.80;;;20.80;74.20;;;20.45;54.92;100713.31;4958987;28;20077;-86
2023/07/06 08:04:47;;;;;;;9.00;2.80;;;20.70;73.30;;;20.45;55.39;100716.81;4951294;28;20052;-86
2023/07/06 08:07:16;;;;;;;14.05;3.17;;;20.70;73.90;;;20.51;55.14;100721.19;4964342;28;20419;-86
2023/07/06 08:09:44;;;;;;;10.73;3.15;;;20.80;73.50;;;20.48;55.39;100713.59;4961201;28;20105;-86
2023/07/06 08:12:11;;;;;;;12.00;3.30;;;20.80;74.10;;;20.50;57.43;100711.44;4963121;28;20094;-86
2023/07/06 08:14:42;;;;;;;9.05;2.67;;;20.80;76.10;;;20.57;55.53;100708.44;4945343;28;20073;-85
2023/07/06 08:17:10;;;;;;;8.38;2.63;;;20.90;73.70;;;20.63;54.53;100715.47;4975546;28;20389;-86
2023/07/06 08:19:37;;;;;;;12.65;2.78;;;21.00;72.50;;;20.66;55.15;100724.97;4940900;29;20050;-86
2023/07/06 08:22:05;;;;;;;12.75;3.15;;;21.00;73.30;;;20.68;54.49;100725.50;4961493;28;20062;-86
2023/07/06 08:24:36;;;;;;;11.52;3.03;;;21.00;72.50;;;20.75;54.73;100723.34;4960563;28;20591;-86
2023/07/06 08:27:04;;;;;;;;;;;21.10;72.90;;;20.65;55.29;100728.78;4955070;28;20047;-86
2023/07/06 08:29:31;;;;;;;10.65;3.28;;;21.00;73.00;;;20.72;54.12;100729.31;4958314;28;20017;-86
2023/07/06 08:31:59;;;;;;;10.57;2.80;;;21.10;72.40;;;20.81;54.97;100722.25;4954023;29;20114;-86
2023/07/06 08:34:27;;;;;;;10.40;2.80;;;21.20;73.20;;;20.89;53.94;100727.13;4954153;29;20039;-86
2023/07/06 08:36:54;;;;;;;8.02;2.45;;;21.30;71.80;;;20.92;52.49;100723.84;4960299;28;20046;-86
2023/07/06 08:39:22;;;;;;;12.88;2.58;;;21.30;70.20;;;20.88;52.67;100728.19;4953748;28;20122;-86
2023/07/06 08:41:51;;;;;;;10.02;2.40;;;21.30;70.30;;;20.93;53.73;100730.06;4955396;29;20496;-86
2023/07/06 08:44:21;;;;;;;7.28;2.13;;;21.30;71.50;;;20.99;52.51;100732.53;4957793;29;20122;-86
2023/07/06 08:46:49;;;;;;;9.65;2.35;;;21.40;70.20;;;20.94;50.98;100727.13;4959316;28;20058;-86
2023/07/06 08:49:25;;;;;;;12.65;2.45;;;21.40;68.20;;;20.92;51.61;100740.13;4955812;29;20043;-86
2023/07/06 08:51:54;;;;;;;9.52;2.67;;;21.30;69.30;;;20.97;51.47;100737.41;4957611;28;20098;-86
2023/07/06 08:54:25;;;;;;;7.38;2.20;;;21.30;68.90;;;20.89;51.70;100740.69;4957506;28;20039;-86
2023/07/06 08:56:56;;;;;;;11.13;2.60;;;21.20;69.10;;;20.88;50.65;100739.03;4961386;28;20101;-86
2023/07/06 08:59:40;;;;;;;11.30;2.78;;;21.20;68.10;;;20.81;51.17;100736.59;4955912;28;20392;-86
2023/07/06 09:02:18;;;;;;;7.45;2.47;;;21.10;68.30;;;20.81;51.75;100743.94;4957599;28;20119;-86
2023/07/06 09:04:47;;;;;;;7.28;1.90;;;21.10;69.30;;;20.83;51.08;100741.75;4956256;29;20118;-86
2023/07/06 09:07:17;;;;;;;6.30;1.83;;;21.10;68.60;;;20.97;52.11;100742.00;4959230;28;20129;-86
2023/07/06 09:09:48;;;;;;;9.10;2.67;;;21.30;69.50;;;20.99;50.44;100740.66;4960982;28;20495;-86
2023/07/06 09:12:24;;;;;;;7.82;2.40;;;21.40;67.30;;;21.02;50.96;100745.53;4938871;29;20126;-86
2023/07/06 09:14:53;;;;;;;8.68;2.53;;;21.40;67.90;;;21.06;50.78;100756.66;4954427;29;20047;-86
2023/07/06 09:17:22;;;;;;;8.63;2.35;;;21.40;67.70;;;20.98;50.92;100747.16;4961500;28;20035;-86
2023/07/06 09:19:51;;;;;;;8.50;2.30;;;21.30;67.70;;;21.05;50.73;100744.97;4963672;28;20496;-86
2023/07/06 09:22:21;;;;;;;7.60;2.05;;;21.40;67.90;;;21.06;51.66;100746.59;4957225;28;20062;-86
2023/07/06 09:24:49;;;;;;;8.13;2.10;;;21.50;68.90;;;21.07;50.98;100736.56;4957011;29;20488;-86
2023/07/06 09:27:23;;;;;;;8.93;2.70;;;21.40;67.50;;;21.09;50.94;100743.34;4955082;28;20058;-86
2023/07/06 09:30:00;;;;;;;11.90;2.65;;;21.50;68.10;;;21.08;51.29;100744.44;4956649;28;20385;-86
2023/07/06 09:32:29;;;;;;;6.68;2.20;;;21.50;68.50;;;21.16;50.95;100743.06;4955828;29;20055;-86
2023/07/06 09:35:06;;;;;;;10.13;2.45;;;21.50;68.00;;;21.19;51.68;100747.13;4956746;28;20035;-86
2023/07/06 09:37:33;;;;;;;10.82;2.65;;;21.60;68.30;;;21.18;49.63;100749.03;4950414;29;20063;-86
2023/07/06 09:40:04;;;;;;;7.88;2.20;;;21.60;66.00;;;21.20;50.16;100746.03;4963301;28;20134;-86
2023/07/06 09:42:34;;;;;;;11.75;2.95;;;21.60;66.60;;;21.23;51.33;100742.78;4955687;29;20043;-86
2023/07/06 09:45:04;;;;;;;8.57;2.13;;;21.60;67.50;;;21.16;50.27;100742.25;4956534;28;20129;-86
2023/07/06 09:47:33;;;;;;;13.55;2.72;;;21.50;66.50;;;21.24;50.99;100741.69;4962447;28;20159;-86
2023/07/06 09:50:08;;;;;;;5.50;2.10;;;21.60;68.10;;;21.39;52.18;100738.16;4958003;28;20464;-86
2023/07/06 09:52:41;;;;;;;9.45;2.35;;;21.70;69.30;;;21.43;52.07;100742.75;4955041;28;20138;-86
2023/07/06 09:55:16;;;;;;;7.60;2.25;;;21.90;68.10;;;21.51;52.99;100738.63;4955874;28;20071;-86
2023/07/06 09:57:48;;;;;;;8.60;2.08;;;21.90;69.00;;;21.40;50.67;100748.72;4956134;28;20043;-86
2023/07/06 10:00:17;;;;;;;;;;;21.80;67.20;;;21.23;49.56;100745.50;4963338;28;20504;-86
2023/07/06 10:03:01;;;;;;;10.77;2.58;;;21.50;66.50;;;20.99;50.06;100751.50;4958590;28;20310;-86
2023/07/06 10:05:42;;;;;;;7.10;2.22;;;21.20;66.60;;;20.94;50.65;100748.81;4940583;29;20071;-86
2023/07/06 10:08:13;;;;;;;6.20;2.22;;;21.10;67.90;;;20.99;51.44;100742.56;4958975;28;20044;-87
2023/07/06 10:10:53;;;;;;;8.15;1.92;;;21.20;68.90;;;21.21;52.70;100747.66;4937033;29;20068;-86
2023/07/06 10:13:35;;;;;;;12.48;2.60;;;21.50;70.30;;;21.09;48.30;100746.06;4948844;29;20058;-86
2023/07/06 10:16:16;;;;;;;7.07;2.35;;;21.40;64.40;;;21.14;51.62;100753.38;4962382;28;20082;-86
2023/07/06 10:18:51;;;;;;;7.97;2.30;;;21.40;68.60;;;20.96;51.09;100757.47;4949645;28;20109;-86
2023/07/06 10:21:27;;;;;;;10.05;2.20;;;21.20;67.90;;;20.80;49.29;100753.97;4960764;28;20094;-87
2023/07/06 10:24:12;;;;;;;6.32;2.10;;;20.90;66.60;;;20.82;51.20;100756.41;4953866;29;20163;-88
2023/07/06 10:26:48;;;;;;;8.45;1.90;;;21.00;68.70;;;21.03;50.62;100755.31;4951327;29;20146;-87
2023/07/06 10:29:25;;;;;;;11.10;2.35;;;21.20;68.00;;;21.01;49.46;100760.19;4948714;28;20488;-87
2023/07/06 10:31:58;;;;;;;12.43;2.20;;;21.30;66.40;;;20.93;49.26;100746.34;4952722;28;20067;-84